sensor_id;sensor_type;location;lat;lon;timestamp;P1;durP1;ratioP1;P2;durP2;ratioP2
27199;SDS011;14714;48.106;11.546;2023-04-29T00:01:13;1.42;;;1.05;;
27199;SDS011;14714;48.106;11.546;2023-04-29T00:03:40;1.75;;;0.95;;
27199;SDS011;14714;48.106;11.546;2023-04-29T00:06:07;1.10;;;1.00;;
27199;SDS011;14714;48.106;11.546;2023-04-29T00:08:36;1.92;;;1.00;;
27199;SDS011;14714;48.106;11.546;2023-04-29T00:11:03;1.10;;;0.93;;
27199;SDS011;14714;48.106;11.546;2023-04-29T00:13:30;4.25;;;1.08;;
27199;SDS011;14714;48.106;11.546;2023-04-29T00:15:57;0.95;;;0.90;;
27199;SDS011;14714;48.106;11.546;2023-04-29T00:18:24;1.48;;;1.00;;
27199;SDS011;14714;48.106;11.546;2023-04-29T00:20:50;1.13;;;1.02;;
27199;SDS011;14714;48.106;11.546;2023-04-29T00:23:17;2.05;;;1.10;;
27199;SDS011;14714;48.106;11.546;2023-04-29T00:25:44;2.17;;;1.00;;
27199;SDS011;14714;48.106;11.546;2023-04-29T00:28:10;1.23;;;1.00;;
27199;SDS011;14714;48.106;11.546;2023-04-29T00:30:37;1.10;;;1.00;;
27199;SDS011;14714;48.106;11.546;2023-04-29T00:33:04;1.25;;;1.00;;
27199;SDS011;14714;48.106;11.546;2023-04-29T00:35:31;1.67;;;1.25;;
27199;SDS011;14714;48.106;11.546;2023-04-29T00:37:57;1.27;;;1.13;;
27199;SDS011;14714;48.106;11.546;2023-04-29T00:40:25;1.70;;;1.10;;
27199;SDS011;14714;48.106;11.546;2023-04-29T00:42:53;1.70;;;1.20;;
27199;SDS011;14714;48.106;11.546;2023-04-29T00:45:20;1.35;;;1.25;;
27199;SDS011;14714;48.106;11.546;2023-04-29T00:47:47;1.38;;;1.27;;
27199;SDS011;14714;48.106;11.546;2023-04-29T00:50:14;1.15;;;0.98;;
27199;SDS011;14714;48.106;11.546;2023-04-29T00:52:40;1.45;;;1.30;;
27199;SDS011;14714;48.106;11.546;2023-04-29T00:55:09;1.40;;;1.10;;
27199;SDS011;14714;48.106;11.546;2023-04-29T00:57:39;2.50;;;1.10;;
27199;SDS011;14714;48.106;11.546;2023-04-29T01:00:07;1.10;;;0.95;;
27199;SDS011;14714;48.106;11.546;2023-04-29T01:02:35;1.20;;;1.10;;
27199;SDS011;14714;48.106;11.546;2023-04-29T01:05:03;3.63;;;1.42;;
27199;SDS011;14714;48.106;11.546;2023-04-29T01:10:37;1.40;;;1.30;;
27199;SDS011;14714;48.106;11.546;2023-04-29T01:13:32;3.88;;;1.25;;
27199;SDS011;14714;48.106;11.546;2023-04-29T01:16:03;1.75;;;1.50;;
27199;SDS011;14714;48.106;11.546;2023-04-29T01:18:48;1.30;;;1.20;;
27199;SDS011;14714;48.106;11.546;2023-04-29T01:21:17;1.48;;;1.27;;
27199;SDS011;14714;48.106;11.546;2023-04-29T01:23:45;2.13;;;1.10;;
27199;SDS011;14714;48.106;11.546;2023-04-29T01:26:12;2.75;;;1.40;;
27199;SDS011;14714;48.106;11.546;2023-04-29T01:28:42;1.17;;;1.08;;
27199;SDS011;14714;48.106;11.546;2023-04-29T01:31:18;1.30;;;1.20;;
27199;SDS011;14714;48.106;11.546;2023-04-29T01:34:07;2.60;;;1.30;;
27199;SDS011;14714;48.106;11.546;2023-04-29T01:36:39;1.77;;;1.52;;
27199;SDS011;14714;48.106;11.546;2023-04-29T01:39:24;1.88;;;1.70;;
27199;SDS011;14714;48.106;11.546;2023-04-29T01:42:05;1.40;;;1.30;;
27199;SDS011;14714;48.106;11.546;2023-04-29T01:44:40;2.33;;;1.52;;
27199;SDS011;14714;48.106;11.546;2023-04-29T01:47:09;1.55;;;1.30;;
27199;SDS011;14714;48.106;11.546;2023-04-29T01:49:39;2.90;;;1.30;;
27199;SDS011;14714;48.106;11.546;2023-04-29T01:52:06;2.10;;;1.65;;
27199;SDS011;14714;48.106;11.546;2023-04-29T01:54:32;1.58;;;1.20;;
27199;SDS011;14714;48.106;11.546;2023-04-29T01:57:02;1.40;;;1.30;;
27199;SDS011;14714;48.106;11.546;2023-04-29T01:59:29;1.45;;;1.30;;
27199;SDS011;14714;48.106;11.546;2023-04-29T02:01:57;1.60;;;1.50;;
27199;SDS011;14714;48.106;11.546;2023-04-29T02:04:24;2.85;;;1.40;;
27199;SDS011;14714;48.106;11.546;2023-04-29T02:06:51;1.92;;;1.20;;
27199;SDS011;14714;48.106;11.546;2023-04-29T02:09:18;1.38;;;1.27;;
27199;SDS011;14714;48.106;11.546;2023-04-29T02:11:44;3.45;;;1.42;;
27199;SDS011;14714;48.106;11.546;2023-04-29T02:14:11;2.67;;;1.30;;
27199;SDS011;14714;48.106;11.546;2023-04-29T02:16:39;1.88;;;1.50;;
27199;SDS011;14714;48.106;11.546;2023-04-29T02:19:05;1.50;;;1.40;;
27199;SDS011;14714;48.106;11.546;2023-04-29T02:21:32;1.80;;;1.33;;
27199;SDS011;14714;48.106;11.546;2023-04-29T02:24:00;3.38;;;1.60;;
27199;SDS011;14714;48.106;11.546;2023-04-29T02:26:27;1.50;;;1.40;;
27199;SDS011;14714;48.106;11.546;2023-04-29T02:28:54;1.98;;;1.58;;
27199;SDS011;14714;48.106;11.546;2023-04-29T02:31:22;2.60;;;1.65;;
27199;SDS011;14714;48.106;11.546;2023-04-29T02:33:49;1.83;;;1.60;;
27199;SDS011;14714;48.106;11.546;2023-04-29T02:36:16;2.65;;;1.60;;
27199;SDS011;14714;48.106;11.546;2023-04-29T02:38:43;2.03;;;1.40;;
27199;SDS011;14714;48.106;11.546;2023-04-29T02:41:14;1.80;;;1.52;;
27199;SDS011;14714;48.106;11.546;2023-04-29T02:43:42;1.60;;;1.33;;
27199;SDS011;14714;48.106;11.546;2023-04-29T02:46:09;1.63;;;1.52;;
27199;SDS011;14714;48.106;11.546;2023-04-29T02:48:37;4.45;;;1.60;;
27199;SDS011;14714;48.106;11.546;2023-04-29T02:51:03;1.73;;;1.33;;
27199;SDS011;14714;48.106;11.546;2023-04-29T02:53:30;2.13;;;1.45;;
27199;SDS011;14714;48.106;11.546;2023-04-29T02:55:57;1.60;;;1.50;;
27199;SDS011;14714;48.106;11.546;2023-04-29T02:58:24;2.45;;;1.60;;
27199;SDS011;14714;48.106;11.546;2023-04-29T03:00:51;1.88;;;1.60;;
27199;SDS011;14714;48.106;11.546;2023-04-29T03:03:18;3.72;;;1.70;;
27199;SDS011;14714;48.106;11.546;2023-04-29T03:05:45;1.95;;;1.60;;
27199;SDS011;14714;48.106;11.546;2023-04-29T03:08:12;2.75;;;1.38;;
27199;SDS011;14714;48.106;11.546;2023-04-29T03:10:38;1.58;;;1.48;;
27199;SDS011;14714;48.106;11.546;2023-04-29T03:13:07;1.75;;;1.65;;
27199;SDS011;14714;48.106;11.546;2023-04-29T03:15:33;2.25;;;1.50;;
27199;SDS011;14714;48.106;11.546;2023-04-29T03:18:00;1.40;;;1.30;;
27199;SDS011;14714;48.106;11.546;2023-04-29T03:20:29;1.98;;;1.33;;
27199;SDS011;14714;48.106;11.546;2023-04-29T03:22:58;1.50;;;1.40;;
27199;SDS011;14714;48.106;11.546;2023-04-29T03:25:26;1.80;;;1.70;;
27199;SDS011;14714;48.106;11.546;2023-04-29T03:27:53;1.60;;;1.50;;
27199;SDS011;14714;48.106;11.546;2023-04-29T03:30:20;1.90;;;1.70;;
27199;SDS011;14714;48.106;11.546;2023-04-29T03:32:47;3.33;;;1.80;;
27199;SDS011;14714;48.106;11.546;2023-04-29T03:35:14;2.95;;;1.90;;
27199;SDS011;14714;48.106;11.546;2023-04-29T03:37:41;2.40;;;2.17;;
27199;SDS011;14714;48.106;11.546;2023-04-29T03:40:10;2.80;;;1.80;;
27199;SDS011;14714;48.106;11.546;2023-04-29T03:42:37;3.45;;;2.20;;
27199;SDS011;14714;48.106;11.546;2023-04-29T03:45:04;3.05;;;1.73;;
27199;SDS011;14714;48.106;11.546;2023-04-29T03:47:32;2.00;;;1.80;;
27199;SDS011;14714;48.106;11.546;2023-04-29T03:49:59;1.90;;;1.73;;
27199;SDS011;14714;48.106;11.546;2023-04-29T03:52:25;2.42;;;2.00;;
27199;SDS011;14714;48.106;11.546;2023-04-29T03:54:52;2.90;;;1.83;;
27199;SDS011;14714;48.106;11.546;2023-04-29T03:57:19;2.20;;;2.00;;
27199;SDS011;14714;48.106;11.546;2023-04-29T03:59:46;2.13;;;1.67;;
27199;SDS011;14714;48.106;11.546;2023-04-29T04:02:16;2.10;;;1.85;;
27199;SDS011;14714;48.106;11.546;2023-04-29T04:04:43;2.75;;;1.65;;
27199;SDS011;14714;48.106;11.546;2023-04-29T04:07:10;2.15;;;1.65;;
27199;SDS011;14714;48.106;11.546;2023-04-29T04:09:37;2.08;;;1.80;;
27199;SDS011;14714;48.106;11.546;2023-04-29T04:12:05;1.95;;;1.77;;
27199;SDS011;14714;48.106;11.546;2023-04-29T04:14:32;1.98;;;1.77;;
27199;SDS011;14714;48.106;11.546;2023-04-29T04:16:59;2.47;;;1.90;;
27199;SDS011;14714;48.106;11.546;2023-04-29T04:19:26;3.30;;;2.10;;
27199;SDS011;14714;48.106;11.546;2023-04-29T04:21:54;2.50;;;2.17;;
27199;SDS011;14714;48.106;11.546;2023-04-29T04:24:21;2.10;;;1.90;;
27199;SDS011;14714;48.106;11.546;2023-04-29T04:26:48;2.40;;;2.20;;
27199;SDS011;14714;48.106;11.546;2023-04-29T04:29:15;2.22;;;1.98;;
27199;SDS011;14714;48.106;11.546;2023-04-29T04:31:42;3.20;;;2.38;;
27199;SDS011;14714;48.106;11.546;2023-04-29T04:34:12;3.70;;;2.40;;
27199;SDS011;14714;48.106;11.546;2023-04-29T04:36:39;2.38;;;2.17;;
27199;SDS011;14714;48.106;11.546;2023-04-29T04:39:06;2.65;;;2.10;;
27199;SDS011;14714;48.106;11.546;2023-04-29T04:41:33;5.95;;;2.60;;
27199;SDS011;14714;48.106;11.546;2023-04-29T04:44:00;2.70;;;2.50;;
27199;SDS011;14714;48.106;11.546;2023-04-29T04:46:28;3.15;;;2.25;;
27199;SDS011;14714;48.106;11.546;2023-04-29T04:48:55;3.47;;;2.60;;
27199;SDS011;14714;48.106;11.546;2023-04-29T04:51:21;3.15;;;2.35;;
27199;SDS011;14714;48.106;11.546;2023-04-29T04:53:48;4.28;;;2.65;;
27199;SDS011;14714;48.106;11.546;2023-04-29T04:56:15;2.90;;;2.60;;
27199;SDS011;14714;48.106;11.546;2023-04-29T04:58:42;3.25;;;2.72;;
27199;SDS011;14714;48.106;11.546;2023-04-29T05:01:09;5.47;;;3.00;;
27199;SDS011;14714;48.106;11.546;2023-04-29T05:03:36;2.97;;;2.67;;
27199;SDS011;14714;48.106;11.546;2023-04-29T05:06:03;3.13;;;2.72;;
27199;SDS011;14714;48.106;11.546;2023-04-29T05:08:30;3.42;;;2.90;;
27199;SDS011;14714;48.106;11.546;2023-04-29T05:10:57;5.13;;;2.90;;
27199;SDS011;14714;48.106;11.546;2023-04-29T05:13:24;3.85;;;3.10;;
27199;SDS011;14714;48.106;11.546;2023-04-29T05:15:51;3.70;;;2.83;;
27199;SDS011;14714;48.106;11.546;2023-04-29T05:18:17;5.95;;;4.15;;
27199;SDS011;14714;48.106;11.546;2023-04-29T05:20:44;9.57;;;5.63;;
27199;SDS011;14714;48.106;11.546;2023-04-29T05:23:11;10.35;;;6.43;;
27199;SDS011;14714;48.106;11.546;2023-04-29T05:25:38;13.75;;;8.05;;
27199;SDS011;14714;48.106;11.546;2023-04-29T05:28:04;11.60;;;8.45;;
27199;SDS011;14714;48.106;11.546;2023-04-29T05:30:32;13.32;;;8.63;;
27199;SDS011;14714;48.106;11.546;2023-04-29T05:32:59;16.40;;;9.45;;
27199;SDS011;14714;48.106;11.546;2023-04-29T05:35:26;10.05;;;8.80;;
27199;SDS011;14714;48.106;11.546;2023-04-29T05:37:53;11.07;;;9.98;;
27199;SDS011;14714;48.106;11.546;2023-04-29T05:40:20;9.73;;;6.57;;
27199;SDS011;14714;48.106;11.546;2023-04-29T05:42:48;7.82;;;5.28;;
27199;SDS011;14714;48.106;11.546;2023-04-29T05:45:15;3.78;;;2.97;;
27199;SDS011;14714;48.106;11.546;2023-04-29T05:47:42;2.30;;;2.08;;
27199;SDS011;14714;48.106;11.546;2023-04-29T05:50:08;2.33;;;1.60;;
27199;SDS011;14714;48.106;11.546;2023-04-29T05:52:37;2.72;;;1.42;;
27199;SDS011;14714;48.106;11.546;2023-04-29T05:55:04;1.95;;;1.50;;
27199;SDS011;14714;48.106;11.546;2023-04-29T05:57:31;6.20;;;1.60;;
27199;SDS011;14714;48.106;11.546;2023-04-29T05:59:58;2.75;;;1.50;;
27199;SDS011;14714;48.106;11.546;2023-04-29T06:02:25;1.63;;;1.30;;
27199;SDS011;14714;48.106;11.546;2023-04-29T06:04:52;1.20;;;1.10;;
27199;SDS011;14714;48.106;11.546;2023-04-29T06:07:20;1.30;;;1.20;;
27199;SDS011;14714;48.106;11.546;2023-04-29T06:09:47;3.33;;;1.38;;
27199;SDS011;14714;48.106;11.546;2023-04-29T06:12:14;1.20;;;1.10;;
27199;SDS011;14714;48.106;11.546;2023-04-29T06:14:40;2.20;;;1.20;;
27199;SDS011;14714;48.106;11.546;2023-04-29T06:17:07;3.17;;;1.10;;
27199;SDS011;14714;48.106;11.546;2023-04-29T06:19:34;1.40;;;1.27;;
27199;SDS011;14714;48.106;11.546;2023-04-29T06:22:01;1.50;;;1.35;;
27199;SDS011;14714;48.106;11.546;2023-04-29T06:24:27;3.20;;;1.48;;
27199;SDS011;14714;48.106;11.546;2023-04-29T06:26:54;3.58;;;1.38;;
27199;SDS011;14714;48.106;11.546;2023-04-29T06:29:21;2.83;;;1.65;;
27199;SDS011;14714;48.106;11.546;2023-04-29T06:31:48;1.90;;;1.50;;
27199;SDS011;14714;48.106;11.546;2023-04-29T06:34:15;3.47;;;1.50;;
27199;SDS011;14714;48.106;11.546;2023-04-29T06:36:41;1.63;;;1.52;;
27199;SDS011;14714;48.106;11.546;2023-04-29T06:39:08;3.65;;;1.50;;
27199;SDS011;14714;48.106;11.546;2023-04-29T06:41:35;2.40;;;1.70;;
27199;SDS011;14714;48.106;11.546;2023-04-29T06:44:02;5.25;;;1.70;;
27199;SDS011;14714;48.106;11.546;2023-04-29T06:46:29;2.30;;;1.83;;
27199;SDS011;14714;48.106;11.546;2023-04-29T06:48:56;2.72;;;2.17;;
27199;SDS011;14714;48.106;11.546;2023-04-29T06:51:22;2.42;;;1.90;;
27199;SDS011;14714;48.106;11.546;2023-04-29T06:53:50;2.88;;;2.03;;
27199;SDS011;14714;48.106;11.546;2023-04-29T06:56:16;2.80;;;2.30;;
27199;SDS011;14714;48.106;11.546;2023-04-29T06:58:43;2.92;;;2.30;;
27199;SDS011;14714;48.106;11.546;2023-04-29T07:01:10;8.02;;;2.70;;
27199;SDS011;14714;48.106;11.546;2023-04-29T07:03:37;3.67;;;2.40;;
27199;SDS011;14714;48.106;11.546;2023-04-29T07:06:04;3.85;;;2.30;;
27199;SDS011;14714;48.106;11.546;2023-04-29T07:08:31;2.83;;;2.50;;
27199;SDS011;14714;48.106;11.546;2023-04-29T07:10:58;3.53;;;2.92;;
27199;SDS011;14714;48.106;11.546;2023-04-29T07:13:25;3.53;;;2.83;;
27199;SDS011;14714;48.106;11.546;2023-04-29T07:15:52;4.13;;;2.80;;
27199;SDS011;14714;48.106;11.546;2023-04-29T07:18:19;4.50;;;3.15;;
27199;SDS011;14714;48.106;11.546;2023-04-29T07:20:46;4.35;;;2.63;;
27199;SDS011;14714;48.106;11.546;2023-04-29T07:23:13;5.20;;;2.58;;
27199;SDS011;14714;48.106;11.546;2023-04-29T07:25:40;3.17;;;2.40;;
27199;SDS011;14714;48.106;11.546;2023-04-29T07:28:07;2.92;;;2.60;;
27199;SDS011;14714;48.106;11.546;2023-04-29T07:30:36;3.07;;;2.20;;
27199;SDS011;14714;48.106;11.546;2023-04-29T07:33:03;2.95;;;2.40;;
27199;SDS011;14714;48.106;11.546;2023-04-29T07:35:30;4.05;;;2.45;;
27199;SDS011;14714;48.106;11.546;2023-04-29T07:37:57;2.63;;;2.05;;
27199;SDS011;14714;48.106;11.546;2023-04-29T07:40:24;4.70;;;2.10;;
27199;SDS011;14714;48.106;11.546;2023-04-29T07:42:51;2.30;;;2.10;;
27199;SDS011;14714;48.106;11.546;2023-04-29T07:45:18;4.35;;;2.10;;
27199;SDS011;14714;48.106;11.546;2023-04-29T07:47:45;5.03;;;2.10;;
27199;SDS011;14714;48.106;11.546;2023-04-29T07:50:12;5.70;;;2.08;;
27199;SDS011;14714;48.106;11.546;2023-04-29T07:52:38;2.72;;;2.20;;
27199;SDS011;14714;48.106;11.546;2023-04-29T07:55:05;3.13;;;2.05;;
27199;SDS011;14714;48.106;11.546;2023-04-29T07:57:32;2.40;;;2.20;;
27199;SDS011;14714;48.106;11.546;2023-04-29T07:59:59;3.03;;;2.20;;
27199;SDS011;14714;48.106;11.546;2023-04-29T08:02:26;3.72;;;2.13;;
27199;SDS011;14714;48.106;11.546;2023-04-29T08:04:53;2.65;;;1.98;;
27199;SDS011;14714;48.106;11.546;2023-04-29T08:07:21;5.00;;;1.88;;
27199;SDS011;14714;48.106;11.546;2023-04-29T08:09:48;4.35;;;1.80;;
27199;SDS011;14714;48.106;11.546;2023-04-29T08:12:15;2.38;;;1.98;;
27199;SDS011;14714;48.106;11.546;2023-04-29T08:14:42;3.80;;;2.00;;
27199;SDS011;14714;48.106;11.546;2023-04-29T08:17:08;2.35;;;1.85;;
27199;SDS011;14714;48.106;11.546;2023-04-29T08:19:35;3.92;;;3.30;;
27199;SDS011;14714;48.106;11.546;2023-04-29T08:22:02;3.25;;;1.80;;
27199;SDS011;14714;48.106;11.546;2023-04-29T08:24:29;3.08;;;1.75;;
27199;SDS011;14714;48.106;11.546;2023-04-29T08:26:58;4.78;;;1.70;;
27199;SDS011;14714;48.106;11.546;2023-04-29T08:29:25;3.65;;;1.80;;
27199;SDS011;14714;48.106;11.546;2023-04-29T08:31:52;3.65;;;1.80;;
27199;SDS011;14714;48.106;11.546;2023-04-29T08:34:18;4.30;;;1.80;;
27199;SDS011;14714;48.106;11.546;2023-04-29T08:36:45;2.83;;;1.90;;
27199;SDS011;14714;48.106;11.546;2023-04-29T08:39:12;2.83;;;1.67;;
27199;SDS011;14714;48.106;11.546;2023-04-29T08:41:39;2.67;;;1.75;;
27199;SDS011;14714;48.106;11.546;2023-04-29T08:44:06;4.00;;;1.75;;
27199;SDS011;14714;48.106;11.546;2023-04-29T08:46:32;2.10;;;1.77;;
27199;SDS011;14714;48.106;11.546;2023-04-29T08:49:01;3.28;;;1.70;;
27199;SDS011;14714;48.106;11.546;2023-04-29T08:51:29;6.87;;;1.90;;
27199;SDS011;14714;48.106;11.546;2023-04-29T08:53:58;7.15;;;2.20;;
27199;SDS011;14714;48.106;11.546;2023-04-29T08:56:25;4.70;;;1.52;;
27199;SDS011;14714;48.106;11.546;2023-04-29T08:58:53;2.53;;;1.65;;
27199;SDS011;14714;48.106;11.546;2023-04-29T09:06:37;4.00;;;1.52;;
27199;SDS011;14714;48.106;11.546;2023-04-29T09:09:04;2.60;;;1.85;;
27199;SDS011;14714;48.106;11.546;2023-04-29T09:11:32;3.22;;;1.55;;
27199;SDS011;14714;48.106;11.546;2023-04-29T09:14:00;4.47;;;1.80;;
27199;SDS011;14714;48.106;11.546;2023-04-29T09:16:27;2.25;;;1.75;;
27199;SDS011;14714;48.106;11.546;2023-04-29T09:18:55;1.98;;;1.50;;
27199;SDS011;14714;48.106;11.546;2023-04-29T09:21:22;2.00;;;1.50;;
27199;SDS011;14714;48.106;11.546;2023-04-29T09:26:23;2.90;;;1.40;;
27199;SDS011;14714;48.106;11.546;2023-04-29T09:29:04;2.30;;;1.45;;
27199;SDS011;14714;48.106;11.546;2023-04-29T09:31:32;3.55;;;1.60;;
27199;SDS011;14714;48.106;11.546;2023-04-29T09:33:58;3.00;;;1.70;;
27199;SDS011;14714;48.106;11.546;2023-04-29T09:36:44;3.15;;;1.50;;
27199;SDS011;14714;48.106;11.546;2023-04-29T09:39:14;2.95;;;1.58;;
27199;SDS011;14714;48.106;11.546;2023-04-29T09:44:19;3.22;;;1.55;;
27199;SDS011;14714;48.106;11.546;2023-04-29T09:47:28;1.75;;;1.48;;
27199;SDS011;14714;48.106;11.546;2023-04-29T09:49:43;1.75;;;1.30;;
27199;SDS011;14714;48.106;11.546;2023-04-29T09:52:11;3.38;;;1.60;;
27199;SDS011;14714;48.106;11.546;2023-04-29T09:57:10;2.78;;;1.48;;
27199;SDS011;14714;48.106;11.546;2023-04-29T09:59:38;1.52;;;1.33;;
27199;SDS011;14714;48.106;11.546;2023-04-29T10:02:13;1.70;;;1.50;;
27199;SDS011;14714;48.106;11.546;2023-04-29T10:04:46;5.47;;;1.50;;
27199;SDS011;14714;48.106;11.546;2023-04-29T10:07:19;3.20;;;1.48;;
27199;SDS011;14714;48.106;11.546;2023-04-29T10:09:47;3.05;;;1.45;;
27199;SDS011;14714;48.106;11.546;2023-04-29T10:12:18;4.40;;;1.30;;
27199;SDS011;14714;48.106;11.546;2023-04-29T10:14:52;2.63;;;1.25;;
27199;SDS011;14714;48.106;11.546;2023-04-29T10:17:35;3.92;;;1.30;;
27199;SDS011;14714;48.106;11.546;2023-04-29T10:20:14;2.83;;;1.20;;
27199;SDS011;14714;48.106;11.546;2023-04-29T10:22:48;1.50;;;1.35;;
27199;SDS011;14714;48.106;11.546;2023-04-29T10:25:17;3.25;;;1.20;;
27199;SDS011;14714;48.106;11.546;2023-04-29T10:27:45;3.33;;;1.20;;
27199;SDS011;14714;48.106;11.546;2023-04-29T10:30:15;2.38;;;1.20;;
27199;SDS011;14714;48.106;11.546;2023-04-29T10:32:43;1.92;;;1.27;;
27199;SDS011;14714;48.106;11.546;2023-04-29T10:35:14;4.80;;;1.88;;
27199;SDS011;14714;48.106;11.546;2023-04-29T10:37:46;3.65;;;1.98;;
27199;SDS011;14714;48.106;11.546;2023-04-29T10:40:18;3.65;;;2.10;;
27199;SDS011;14714;48.106;11.546;2023-04-29T10:42:54;3.03;;;2.10;;
27199;SDS011;14714;48.106;11.546;2023-04-29T10:45:28;3.17;;;2.10;;
27199;SDS011;14714;48.106;11.546;2023-04-29T10:50:35;3.15;;;2.10;;
27199;SDS011;14714;48.106;11.546;2023-04-29T10:53:12;3.67;;;2.00;;
27199;SDS011;14714;48.106;11.546;2023-04-29T10:55:48;4.82;;;2.00;;
27199;SDS011;14714;48.106;11.546;2023-04-29T10:59:02;3.60;;;2.10;;
27199;SDS011;14714;48.106;11.546;2023-04-29T11:01:11;2.40;;;1.90;;
27199;SDS011;14714;48.106;11.546;2023-04-29T11:06:14;3.85;;;1.80;;
27199;SDS011;14714;48.106;11.546;2023-04-29T11:08:41;3.00;;;1.85;;
27199;SDS011;14714;48.106;11.546;2023-04-29T11:11:08;3.38;;;1.60;;
27199;SDS011;14714;48.106;11.546;2023-04-29T11:13:39;5.10;;;1.98;;
27199;SDS011;14714;48.106;11.546;2023-04-29T11:16:06;2.10;;;1.75;;
27199;SDS011;14714;48.106;11.546;2023-04-29T11:19:17;4.90;;;1.60;;
27199;SDS011;14714;48.106;11.546;2023-04-29T11:21:35;3.05;;;1.75;;
27199;SDS011;14714;48.106;11.546;2023-04-29T11:24:03;2.53;;;1.80;;
27199;SDS011;14714;48.106;11.546;2023-04-29T11:26:33;2.35;;;1.70;;
27199;SDS011;14714;48.106;11.546;2023-04-29T11:29:00;2.25;;;1.50;;
27199;SDS011;14714;48.106;11.546;2023-04-29T11:31:31;2.35;;;1.80;;
27199;SDS011;14714;48.106;11.546;2023-04-29T11:33:59;2.38;;;1.80;;
27199;SDS011;14714;48.106;11.546;2023-04-29T11:36:26;3.95;;;1.52;;
27199;SDS011;14714;48.106;11.546;2023-04-29T11:38:53;1.58;;;1.45;;
27199;SDS011;14714;48.106;11.546;2023-04-29T11:41:21;3.28;;;1.70;;
27199;SDS011;14714;48.106;11.546;2023-04-29T11:43:55;3.10;;;1.70;;
27199;SDS011;14714;48.106;11.546;2023-04-29T11:46:29;3.50;;;1.85;;
27199;SDS011;14714;48.106;11.546;2023-04-29T11:48:56;3.67;;;1.60;;
27199;SDS011;14714;48.106;11.546;2023-04-29T11:51:25;3.05;;;1.50;;
27199;SDS011;14714;48.106;11.546;2023-04-29T11:53:52;1.58;;;1.48;;
27199;SDS011;14714;48.106;11.546;2023-04-29T11:56:20;2.13;;;1.88;;
27199;SDS011;14714;48.106;11.546;2023-04-29T11:58:54;2.05;;;1.63;;
27199;SDS011;14714;48.106;11.546;2023-04-29T12:01:22;2.33;;;1.50;;
27199;SDS011;14714;48.106;11.546;2023-04-29T12:03:50;3.05;;;1.40;;
27199;SDS011;14714;48.106;11.546;2023-04-29T12:06:17;3.60;;;1.70;;
27199;SDS011;14714;48.106;11.546;2023-04-29T12:08:45;2.00;;;1.50;;
27199;SDS011;14714;48.106;11.546;2023-04-29T12:11:12;1.98;;;1.45;;
27199;SDS011;14714;48.106;11.546;2023-04-29T12:13:39;2.28;;;1.30;;
27199;SDS011;14714;48.106;11.546;2023-04-29T12:16:06;2.92;;;1.38;;
27199;SDS011;14714;48.106;11.546;2023-04-29T12:18:33;3.15;;;1.30;;
27199;SDS011;14714;48.106;11.546;2023-04-29T12:21:00;1.85;;;1.30;;
27199;SDS011;14714;48.106;11.546;2023-04-29T12:23:27;1.40;;;1.30;;
27199;SDS011;14714;48.106;11.546;2023-04-29T12:25:58;2.25;;;1.60;;
27199;SDS011;14714;48.106;11.546;2023-04-29T12:28:26;3.00;;;1.50;;
27199;SDS011;14714;48.106;11.546;2023-04-29T12:30:53;2.83;;;1.98;;
27199;SDS011;14714;48.106;11.546;2023-04-29T12:35:48;2.17;;;1.40;;
27199;SDS011;14714;48.106;11.546;2023-04-29T12:38:22;1.60;;;1.50;;
27199;SDS011;14714;48.106;11.546;2023-04-29T12:40:54;1.60;;;1.27;;
27199;SDS011;14714;48.106;11.546;2023-04-29T12:43:25;3.00;;;1.40;;
27199;SDS011;14714;48.106;11.546;2023-04-29T12:46:14;1.33;;;1.23;;
27199;SDS011;14714;48.106;11.546;2023-04-29T12:48:41;5.65;;;2.05;;
27199;SDS011;14714;48.106;11.546;2023-04-29T12:51:11;1.63;;;1.50;;
27199;SDS011;14714;48.106;11.546;2023-04-29T12:53:38;3.20;;;1.50;;
27199;SDS011;14714;48.106;11.546;2023-04-29T12:56:05;2.72;;;1.50;;
27199;SDS011;14714;48.106;11.546;2023-04-29T12:58:32;3.08;;;1.40;;
27199;SDS011;14714;48.106;11.546;2023-04-29T13:01:01;2.20;;;1.50;;
27199;SDS011;14714;48.106;11.546;2023-04-29T13:03:28;4.68;;;1.40;;
27199;SDS011;14714;48.106;11.546;2023-04-29T13:05:56;3.08;;;1.23;;
27199;SDS011;14714;48.106;11.546;2023-04-29T13:08:24;1.33;;;1.23;;
27199;SDS011;14714;48.106;11.546;2023-04-29T13:10:51;2.60;;;1.55;;
27199;SDS011;14714;48.106;11.546;2023-04-29T13:13:18;2.42;;;1.30;;
27199;SDS011;14714;48.106;11.546;2023-04-29T13:15:45;1.77;;;1.20;;
27199;SDS011;14714;48.106;11.546;2023-04-29T13:18:12;1.75;;;1.60;;
27199;SDS011;14714;48.106;11.546;2023-04-29T13:20:39;1.80;;;1.30;;
27199;SDS011;14714;48.106;11.546;2023-04-29T13:23:08;2.00;;;1.33;;
27199;SDS011;14714;48.106;11.546;2023-04-29T13:25:35;1.80;;;1.40;;
27199;SDS011;14714;48.106;11.546;2023-04-29T13:28:02;1.30;;;1.20;;
27199;SDS011;14714;48.106;11.546;2023-04-29T13:30:30;2.00;;;1.42;;
27199;SDS011;14714;48.106;11.546;2023-04-29T13:32:58;2.08;;;1.50;;
27199;SDS011;14714;48.106;11.546;2023-04-29T13:35:36;3.45;;;1.40;;
27199;SDS011;14714;48.106;11.546;2023-04-29T13:38:05;2.92;;;1.50;;
27199;SDS011;14714;48.106;11.546;2023-04-29T13:40:32;2.88;;;1.50;;
27199;SDS011;14714;48.106;11.546;2023-04-29T13:43:05;1.55;;;1.33;;
27199;SDS011;14714;48.106;11.546;2023-04-29T13:45:35;1.40;;;1.30;;
27199;SDS011;14714;48.106;11.546;2023-04-29T13:48:08;2.42;;;1.33;;
27199;SDS011;14714;48.106;11.546;2023-04-29T13:50:55;1.25;;;1.08;;
27199;SDS011;14714;48.106;11.546;2023-04-29T13:53:42;1.67;;;1.27;;
27199;SDS011;14714;48.106;11.546;2023-04-29T13:56:12;4.22;;;1.40;;
27199;SDS011;14714;48.106;11.546;2023-04-29T13:58:42;1.35;;;1.00;;
27199;SDS011;14714;48.106;11.546;2023-04-29T14:01:28;2.80;;;1.10;;
27199;SDS011;14714;48.106;11.546;2023-04-29T14:03:58;1.10;;;1.00;;
27199;SDS011;14714;48.106;11.546;2023-04-29T14:06:26;2.13;;;1.10;;
27199;SDS011;14714;48.106;11.546;2023-04-29T14:08:53;1.15;;;1.10;;
27199;SDS011;14714;48.106;11.546;2023-04-29T14:11:20;1.67;;;1.10;;
27199;SDS011;14714;48.106;11.546;2023-04-29T14:13:47;1.35;;;1.05;;
27199;SDS011;14714;48.106;11.546;2023-04-29T14:16:14;2.05;;;1.00;;
27199;SDS011;14714;48.106;11.546;2023-04-29T14:18:42;2.40;;;1.13;;
27199;SDS011;14714;48.106;11.546;2023-04-29T14:21:08;1.38;;;1.17;;
27199;SDS011;14714;48.106;11.546;2023-04-29T14:23:36;1.35;;;1.13;;
27199;SDS011;14714;48.106;11.546;2023-04-29T14:26:03;4.50;;;1.20;;
27199;SDS011;14714;48.106;11.546;2023-04-29T14:28:50;3.17;;;1.30;;
27199;SDS011;14714;48.106;11.546;2023-04-29T14:31:23;2.67;;;1.38;;
27199;SDS011;14714;48.106;11.546;2023-04-29T14:33:50;3.33;;;1.38;;
27199;SDS011;14714;48.106;11.546;2023-04-29T14:36:17;2.97;;;1.20;;
27199;SDS011;14714;48.106;11.546;2023-04-29T14:38:44;1.77;;;1.50;;
27199;SDS011;14714;48.106;11.546;2023-04-29T14:41:11;1.83;;;1.48;;
27199;SDS011;14714;48.106;11.546;2023-04-29T14:43:38;1.63;;;1.20;;
27199;SDS011;14714;48.106;11.546;2023-04-29T14:46:06;2.58;;;1.15;;
27199;SDS011;14714;48.106;11.546;2023-04-29T14:48:34;1.20;;;1.10;;
27199;SDS011;14714;48.106;11.546;2023-04-29T14:51:01;1.33;;;1.23;;
27199;SDS011;14714;48.106;11.546;2023-04-29T14:53:28;1.20;;;1.10;;
27199;SDS011;14714;48.106;11.546;2023-04-29T14:55:54;1.20;;;1.10;;
27199;SDS011;14714;48.106;11.546;2023-04-29T14:58:21;1.42;;;1.17;;
27199;SDS011;14714;48.106;11.546;2023-04-29T15:00:48;1.95;;;1.23;;
27199;SDS011;14714;48.106;11.546;2023-04-29T15:03:16;2.13;;;1.40;;
27199;SDS011;14714;48.106;11.546;2023-04-29T15:05:47;3.85;;;1.20;;